createdAt,value
2023-01-05T00:01:13.331Z,100157.84
2023-01-05T00:03:40.993Z,100156.00
2023-01-05T00:06:11.937Z,100146.38
2023-01-05T00:08:39.667Z,100158.50
2023-01-05T00:11:08.091Z,100159.34
2023-01-05T00:13:34.875Z,100160.16
2023-01-05T00:16:01.809Z,100153.09
2023-01-05T00:18:29.987Z,100147.66
2023-01-05T00:20:57.013Z,100156.00
2023-01-05T00:23:23.866Z,100165.63
2023-01-05T00:25:50.687Z,100155.22
2023-01-05T00:28:17.674Z,100155.44
2023-01-05T00:30:51.008Z,100144.81
2023-01-05T00:33:18.253Z,100152.31
2023-01-05T00:35:46.439Z,100159.63
2023-01-05T00:38:13.785Z,100161.50
2023-01-05T00:40:40.674Z,100150.03
2023-01-05T00:43:07.571Z,100148.78
2023-01-05T00:45:34.632Z,100150.44
2023-01-05T00:48:01.588Z,100143.16
2023-01-05T00:50:28.587Z,100133.75
2023-01-05T00:52:57.556Z,100141.88
2023-01-05T00:55:24.359Z,100126.66
2023-01-05T00:57:51.368Z,100117.50
2023-01-05T01:00:19.855Z,100132.69
2023-01-05T01:02:47.844Z,100120.19
2023-01-05T01:05:15.100Z,100129.75
2023-01-05T01:07:42.475Z,100130.38
2023-01-05T01:10:12.155Z,100129.34
2023-01-05T01:12:39.234Z,100139.13
2023-01-05T01:15:08.614Z,100113.69
2023-01-05T01:17:35.705Z,100127.84
2023-01-05T01:20:02.605Z,100118.69
2023-01-05T01:22:29.964Z,100117.41
2023-01-05T01:24:56.844Z,100133.88
2023-01-05T01:27:25.142Z,100124.69
2023-01-05T01:29:52.255Z,100129.09
2023-01-05T01:32:22.051Z,100127.41
2023-01-05T01:34:51.210Z,100135.53
2023-01-05T01:37:18.825Z,100129.09
2023-01-05T01:39:49.798Z,100142.22
2023-01-05T01:42:17.548Z,100129.69
2023-01-05T01:44:57.521Z,100123.84
2023-01-05T01:47:40.089Z,100124.91
2023-01-05T01:50:16.408Z,100125.72
2023-01-05T01:52:48.168Z,100131.16
2023-01-05T01:55:17.075Z,100137.16
2023-01-05T01:57:47.523Z,100125.94
2023-01-05T02:00:19.475Z,100128.22
2023-01-05T02:02:52.952Z,100116.53
2023-01-05T02:05:29.520Z,100115.47
2023-01-05T02:07:56.828Z,100117.59
2023-01-05T02:10:42.398Z,100117.97
2023-01-05T02:13:31.746Z,100112.56
2023-01-05T02:16:13.088Z,100110.28
2023-01-05T02:19:05.544Z,100114.47
2023-01-05T02:21:57.676Z,100106.09
2023-01-05T02:25:02.376Z,100099.63
2023-01-05T02:27:49.667Z,100102.13
2023-01-05T02:31:02.901Z,100097.97
2023-01-05T02:33:58.628Z,100093.13
2023-01-05T02:36:34.678Z,100105.25
2023-01-05T02:39:14.423Z,100102.16
2023-01-05T02:41:49.276Z,100088.59
2023-01-05T02:44:18.337Z,100096.28
2023-01-05T02:47:01.698Z,100096.06
2023-01-05T02:49:31.706Z,100089.63
2023-01-05T02:52:03.043Z,100103.75
2023-01-05T02:54:37.002Z,100108.38
2023-01-05T02:57:12.153Z,100101.69
2023-01-05T02:59:47.624Z,100098.75
2023-01-05T03:02:24.099Z,100096.88
2023-01-05T03:04:58.901Z,100098.75
2023-01-05T03:07:33.716Z,100097.31
2023-01-05T03:10:01.768Z,100091.72
2023-01-05T03:12:43.076Z,100104.19
2023-01-05T03:15:20.886Z,100111.31
2023-01-05T03:17:55.400Z,100106.53
2023-01-05T03:20:27.327Z,100104.03
2023-01-05T03:22:59.217Z,100117.81
2023-01-05T03:25:28.366Z,100100.94
2023-01-05T03:27:57.744Z,100108.00
2023-01-05T03:30:36.719Z,100107.19
2023-01-05T03:33:17.600Z,100103.63
2023-01-05T03:35:51.499Z,100107.41
2023-01-05T03:38:28.663Z,100105.50
2023-01-05T03:41:01.366Z,100106.34
2023-01-05T03:43:28.944Z,100102.56
2023-01-05T03:46:09.553Z,100096.94
2023-01-05T03:48:39.717Z,100102.19
2023-01-05T03:51:07.953Z,100100.31
2023-01-05T03:53:36.951Z,100093.84
2023-01-05T03:56:04.619Z,100094.44
2023-01-05T03:58:31.723Z,100088.22
2023-01-05T04:01:20.058Z,100080.69
2023-01-05T04:03:49.529Z,100104.84
2023-01-05T04:06:18.539Z,100101.13
2023-01-05T04:08:45.469Z,100101.13
2023-01-05T04:11:15.171Z,100100.50
2023-01-05T04:13:48.058Z,100096.94
2023-01-05T04:16:16.819Z,100104.03
2023-01-05T04:18:44.572Z,100102.78
2023-01-05T04:21:13.011Z,100108.44
2023-01-05T04:23:39.993Z,100116.78
2023-01-05T04:26:06.978Z,100117.28
2023-01-05T04:28:34.524Z,100102.66
2023-01-05T04:31:02.616Z,100111.00
2023-01-05T04:33:31.241Z,100120.78
2023-01-05T04:35:58.562Z,100119.34
2023-01-05T04:38:29.926Z,100115.22
2023-01-05T04:40:57.063Z,100113.34
2023-01-05T04:43:25.808Z,100120.22
2023-01-05T04:45:53.808Z,100102.31
2023-01-05T04:48:20.949Z,100115.22
2023-01-05T04:50:53.080Z,100112.56
2023-01-05T04:53:24.831Z,100132.34
2023-01-05T04:55:53.887Z,100129.84
2023-01-05T04:58:23.622Z,100139.69
2023-01-05T05:00:52.911Z,100142.81
2023-01-05T05:03:20.958Z,100142.59
2023-01-05T05:05:48.719Z,100151.78
2023-01-05T05:08:16.341Z,100154.72
2023-01-05T05:10:43.231Z,100150.31
2023-01-05T05:13:11.501Z,100163.69
2023-01-05T05:15:39.252Z,100162.00
2023-01-05T05:18:09.684Z,100162.22
2023-01-05T05:20:44.146Z,100165.78
2023-01-05T05:23:11.840Z,100172.25
2023-01-05T05:25:38.661Z,100186.22
2023-01-05T05:28:05.947Z,100189.34
2023-01-05T05:30:38.603Z,100191.19
2023-01-05T05:33:05.808Z,100191.63
2023-01-05T05:35:32.815Z,100198.09
2023-01-05T05:37:59.668Z,100197.03
2023-01-05T05:40:26.736Z,100193.69
2023-01-05T05:42:53.738Z,100209.13
2023-01-05T05:45:20.529Z,100217.91
2023-01-05T05:47:48.787Z,100216.25
2023-01-05T05:50:15.870Z,100223.31
2023-01-05T05:52:49.005Z,100229.34
2023-01-05T05:55:18.272Z,100234.13
2023-01-05T05:57:45.301Z,100234.97
2023-01-05T06:00:14.510Z,100229.97
2023-01-05T06:02:41.772Z,100239.34
2023-01-05T06:05:10.486Z,100240.41
2023-01-05T06:07:37.415Z,100239.97
2023-01-05T06:10:05.767Z,100249.97
2023-01-05T06:12:32.854Z,100257.28
2023-01-05T06:14:59.818Z,100253.31
2023-01-05T06:17:27.025Z,100272.91
2023-01-05T06:19:54.224Z,100279.53
2023-01-05T06:22:22.600Z,100280.59
2023-01-05T06:24:49.336Z,100281.00
2023-01-05T06:36:09.466Z,100297.47
2023-01-05T06:38:40.365Z,100300.56
2023-01-05T06:41:07.511Z,100296.84
2023-01-05T06:43:34.287Z,100299.31
2023-01-05T06:46:01.279Z,100311.19
2023-01-05T06:48:28.586Z,100308.25
2023-01-05T06:50:55.722Z,100313.69
2023-01-05T06:53:22.679Z,100309.09
2023-01-05T06:55:50.966Z,100298.28
2023-01-05T06:58:17.719Z,100294.94
2023-01-05T07:00:44.822Z,100295.13
2023-01-05T07:03:13.584Z,100308.06
2023-01-05T07:05:40.598Z,100303.88
2023-01-05T07:08:08.157Z,100298.06
2023-01-05T07:10:35.333Z,100302.41
2023-01-05T07:13:03.503Z,100297.00
2023-01-05T07:15:30.577Z,100295.34
2023-01-05T07:17:57.549Z,100291.38
2023-01-05T07:20:24.381Z,100297.22
2023-01-05T07:22:51.237Z,100295.34
2023-01-05T07:25:18.185Z,100303.06
2023-01-05T07:27:50.444Z,100298.25
2023-01-05T07:30:19.098Z,100308.47
2023-01-05T07:32:47.035Z,100302.03
2023-01-05T07:35:13.964Z,100306.19
2023-01-05T07:37:41.192Z,100301.00
2023-01-05T07:40:12.307Z,100307.22
2023-01-05T07:42:39.498Z,100302.22
2023-01-05T07:45:09.921Z,100299.31
2023-01-05T07:47:40.119Z,100307.44
2023-01-05T07:53:52.425Z,100309.72
2023-01-05T07:56:19.448Z,100311.84
2023-01-05T07:58:46.341Z,100321.19
2023-01-05T08:01:15.719Z,100320.13
2023-01-05T08:03:45.052Z,100323.69
2023-01-05T08:06:16.333Z,100324.28
2023-01-05T08:08:43.317Z,100332.00
2023-01-05T08:11:13.032Z,100344.09
2023-01-05T08:13:39.808Z,100334.94
2023-01-05T08:16:07.831Z,100333.28
2023-01-05T08:18:34.860Z,100342.66
2023-01-05T08:21:03.333Z,100336.63
2023-01-05T08:23:32.045Z,100344.75
2023-01-05T08:26:05.428Z,100352.88
2023-01-05T08:28:35.564Z,100366.81
2023-01-05T08:31:04.476Z,100372.88
2023-01-05T08:33:32.000Z,100372.22
2023-01-05T08:35:59.117Z,100378.06
2023-01-05T08:38:27.445Z,100370.56
2023-01-05T08:40:58.297Z,100380.16
2023-01-05T08:43:25.361Z,100381.19
2023-01-05T08:45:52.314Z,100393.91
2023-01-05T08:48:19.164Z,100399.50
2023-01-05T08:50:46.016Z,100407.03
2023-01-05T08:53:13.109Z,100401.41
2023-01-05T08:55:41.220Z,100403.72
2023-01-05T08:58:08.186Z,100405.78
2023-01-05T09:00:35.159Z,100406.81
2023-01-05T09:03:02.158Z,100417.84
2023-01-05T09:05:29.177Z,100413.72
2023-01-05T09:07:56.728Z,100421.44
2023-01-05T09:10:23.620Z,100426.81
2023-01-05T09:12:52.053Z,100423.06
2023-01-05T09:15:19.339Z,100423.91
2023-01-05T09:17:46.316Z,100428.91
2023-01-05T09:20:13.247Z,100431.00
2023-01-05T09:22:40.107Z,100441.84
2023-01-05T09:25:07.993Z,100436.00
2023-01-05T09:27:34.887Z,100442.06
2023-01-05T09:30:04.411Z,100436.81
2023-01-05T09:32:31.441Z,100441.41
2023-01-05T09:34:58.218Z,100443.50
2023-01-05T09:37:25.131Z,100451.00
2023-01-05T09:39:51.950Z,100446.41
2023-01-05T09:42:24.451Z,100461.63
2023-01-05T09:44:59.582Z,100459.97
2023-01-05T09:47:36.020Z,100461.84
2023-01-05T09:50:07.620Z,100462.06
2023-01-05T09:52:38.350Z,100458.53
2023-01-05T09:55:15.642Z,100455.19
2023-01-05T09:57:51.087Z,100459.56
2023-01-05T10:00:20.751Z,100471.69
2023-01-05T10:02:53.510Z,100466.88
2023-01-05T10:05:22.739Z,100474.59
2023-01-05T10:07:53.972Z,100468.97
2023-01-05T10:10:43.151Z,100468.16
2023-01-05T10:13:25.935Z,100465.84
2023-01-05T10:15:55.424Z,100459.59
2023-01-05T10:18:28.191Z,100463.34
2023-01-05T10:21:11.495Z,100455.84
2023-01-05T10:24:03.337Z,100456.47
2023-01-05T10:27:22.682Z,100453.34
2023-01-05T10:29:41.003Z,100450.41
2023-01-05T10:32:24.227Z,100455.84
2023-01-05T10:34:58.930Z,100454.59
2023-01-05T10:37:55.698Z,100444.97
2023-01-05T10:40:45.883Z,100443.56
2023-01-05T10:43:46.164Z,100445.00
2023-01-05T10:46:39.969Z,100444.97
2023-01-05T10:49:06.904Z,100447.91
2023-01-05T10:51:39.353Z,100436.66
2023-01-05T10:54:20.680Z,100428.97
2023-01-05T10:56:47.999Z,100443.56
2023-01-05T10:59:15.109Z,100440.63
2023-01-05T11:01:45.966Z,100444.19
2023-01-05T11:04:35.304Z,100455.84
2023-01-05T11:07:06.998Z,100452.31
2023-01-05T11:09:41.171Z,100456.06
2023-01-05T11:12:19.303Z,100450.03
2023-01-05T11:14:58.067Z,100451.47
2023-01-05T11:17:28.917Z,100460.00
2023-01-05T11:19:57.934Z,100447.09
2023-01-05T11:22:34.625Z,100454.81
2023-01-05T11:25:33.916Z,100452.13
2023-01-05T11:28:12.856Z,100459.41
2023-01-05T11:30:57.971Z,100469.59
2023-01-05T11:33:29.208Z,100457.28
2023-01-05T11:35:57.696Z,100457.50
2023-01-05T11:38:29.856Z,100460.03
2023-01-05T11:40:59.551Z,100457.53
2023-01-05T11:43:32.660Z,100464.19
2023-01-05T11:46:03.454Z,100460.00
2023-01-05T11:48:34.860Z,100460.03
2023-01-05T11:51:01.888Z,100453.16
2023-01-05T11:53:40.055Z,100451.25
2023-01-05T11:56:21.295Z,100470.66
2023-01-05T11:58:50.683Z,100466.69
2023-01-05T12:01:54.778Z,100469.38
2023-01-05T12:04:34.535Z,100461.44
2023-01-05T12:07:23.231Z,100454.19
2023-01-05T12:10:02.835Z,100463.75
2023-01-05T12:12:58.063Z,100460.00
2023-01-05T12:15:56.109Z,100469.81
2023-01-05T12:19:06.778Z,100475.84
2023-01-05T12:21:38.300Z,100457.50
2023-01-05T12:24:46.937Z,100470.63
2023-01-05T12:27:37.579Z,100473.56
2023-01-05T12:32:41.017Z,100469.81
2023-01-05T12:34:08.526Z,100475.00
2023-01-05T12:37:01.462Z,100468.78
2023-01-05T12:40:10.107Z,100462.09
2023-01-05T12:42:59.804Z,100467.09
2023-01-05T12:46:10.930Z,100465.84
2023-01-05T12:48:44.725Z,100462.50
2023-01-05T12:51:20.719Z,100462.50
2023-01-05T12:53:56.903Z,100474.63
2023-01-05T12:56:30.395Z,100462.09
2023-01-05T12:59:14.452Z,100470.66
2023-01-05T13:01:51.860Z,100463.34
2023-01-05T13:04:46.263Z,100462.94
2023-01-05T13:07:23.864Z,100460.84
2023-01-05T13:10:02.574Z,100471.88
2023-01-05T13:12:34.028Z,100471.03
2023-01-05T13:15:23.605Z,100469.81
2023-01-05T13:17:54.891Z,100464.59
2023-01-05T13:20:35.784Z,100461.25
2023-01-05T13:23:12.109Z,100464.41
2023-01-05T13:25:51.844Z,100466.28
2023-01-05T13:28:21.711Z,100467.50
2023-01-05T13:31:18.518Z,100464.59
2023-01-05T13:34:17.078Z,100468.78
2023-01-05T13:37:27.410Z,100469.38
2023-01-05T13:40:14.110Z,100473.38
2023-01-05T13:43:27.700Z,100468.13
2023-01-05T13:46:42.911Z,100470.84
2023-01-05T13:49:38.682Z,100477.94
2023-01-05T13:52:25.416Z,100482.94
2023-01-05T13:55:01.760Z,100476.25
2023-01-05T13:57:37.958Z,100464.81
2023-01-05T14:00:21.101Z,100467.50
2023-01-05T14:03:04.916Z,100460.44
2023-01-05T14:05:40.858Z,100467.31
2023-01-05T14:08:22.950Z,100469.63
2023-01-05T14:11:13.260Z,100465.66
2023-01-05T14:13:48.148Z,100467.50
2023-01-05T14:16:54.130Z,100472.75
2023-01-05T14:19:44.099Z,100471.09
2023-01-05T14:22:38.240Z,100478.97
2023-01-05T14:25:58.038Z,100484.19
2023-01-05T14:28:45.977Z,100482.13
2023-01-05T14:31:49.159Z,100489.19
2023-01-05T14:34:19.941Z,100489.19
2023-01-05T14:37:02.840Z,100489.41
2023-01-05T14:39:39.639Z,100494.00
2023-01-05T14:42:18.977Z,100496.31
2023-01-05T14:44:50.545Z,100497.13
2023-01-05T14:47:34.209Z,100506.72
2023-01-05T14:50:02.150Z,100495.03
2023-01-05T14:52:57.784Z,100513.81
2023-01-05T14:55:44.705Z,100504.63
2023-01-05T14:58:15.213Z,100513.59
2023-01-05T15:01:18.833Z,100506.72
2023-01-05T15:03:53.530Z,100512.56
2023-01-05T15:06:36.741Z,100504.84
2023-01-05T15:09:33.003Z,100508.38
2023-01-05T15:12:42.020Z,100511.06
2023-01-05T15:15:40.798Z,100518.97
2023-01-05T15:19:17.714Z,100518.97
2023-01-05T15:22:13.428Z,100520.00
2023-01-05T15:25:11.696Z,100525.88
2023-01-05T15:28:03.862Z,100515.63
2023-01-05T15:31:13.405Z,100520.44
2023-01-05T15:33:52.572Z,100522.94
2023-01-05T15:36:28.774Z,100525.88
2023-01-05T15:38:56.383Z,100530.44
2023-01-05T15:41:28.327Z,100526.28
2023-01-05T15:43:56.228Z,100520.84
2023-01-05T15:46:34.294Z,100522.06
2023-01-05T15:49:01.567Z,100525.41
2023-01-05T15:51:32.509Z,100530.34
2023-01-05T15:54:02.604Z,100527.22
2023-01-05T15:56:34.713Z,100538.84
2023-01-05T15:59:04.248Z,100527.19
2023-01-05T16:01:31.239Z,100537.00
2023-01-05T16:04:09.043Z,100533.88
2023-01-05T16:06:38.820Z,100537.59
2023-01-05T16:09:18.453Z,100541.31
2023-01-05T16:11:49.904Z,100545.94
2023-01-05T16:14:25.759Z,100539.72
2023-01-05T16:16:59.391Z,100535.59
2023-01-05T16:19:32.758Z,100539.09
2023-01-05T16:22:09.097Z,100534.75
2023-01-05T16:24:44.639Z,100538.91
2023-01-05T16:27:14.212Z,100542.06
2023-01-05T16:29:44.294Z,100547.88
2023-01-05T16:32:31.367Z,100543.31
2023-01-05T16:35:21.900Z,100541.84
2023-01-05T16:38:16.884Z,100548.06
2023-01-05T16:41:13.668Z,100547.88
2023-01-05T16:43:52.152Z,100540.59
2023-01-05T16:46:36.159Z,100533.09
2023-01-05T16:49:34.188Z,100528.72
2023-01-05T16:52:03.760Z,100536.84
2023-01-05T16:54:34.847Z,100531.22
2023-01-05T16:57:04.222Z,100540.34
2023-01-05T16:59:48.369Z,100538.09
2023-01-05T17:02:46.264Z,100536.19
2023-01-05T17:05:17.738Z,100548.91
2023-01-05T17:07:49.144Z,100546.19
2023-01-05T17:10:22.019Z,100548.66
2023-01-05T17:12:59.530Z,100543.81
2023-01-05T17:15:32.761Z,100541.31
2023-01-05T17:18:01.381Z,100540.44
2023-01-05T17:23:08.881Z,100527.81
2023-01-05T17:25:36.389Z,100529.91
2023-01-05T17:28:03.425Z,100527.59
2023-01-05T17:30:31.657Z,100518.03
2023-01-05T17:32:58.589Z,100519.03
2023-01-05T17:35:25.552Z,100524.63
2023-01-05T17:37:52.382Z,100523.59
2023-01-05T17:40:21.594Z,100525.28
2023-01-05T17:42:49.009Z,100521.88
2023-01-05T17:45:18.883Z,100523.97
2023-01-05T17:47:47.058Z,100534.22
2023-01-05T17:50:17.354Z,100530.50
2023-01-05T17:52:44.630Z,100530.91
2023-01-05T17:55:12.513Z,100526.28
2023-01-05T17:57:40.030Z,100536.06
2023-01-05T18:00:10.880Z,100538.22
2023-01-05T18:02:38.503Z,100544.88
2023-01-05T18:05:10.495Z,100529.63
2023-01-05T18:07:39.547Z,100527.53
2023-01-05T18:10:10.740Z,100530.06
2023-01-05T18:12:37.576Z,100533.91
2023-01-05T18:15:05.878Z,100531.59
2023-01-05T18:17:33.011Z,100528.69
2023-01-05T18:19:59.767Z,100533.44
2023-01-05T18:22:27.976Z,100533.91
2023-01-05T18:24:55.109Z,100523.03
2023-01-05T18:27:21.973Z,100535.28
2023-01-05T18:29:48.911Z,100536.91
2023-01-05T18:32:15.995Z,100522.88
2023-01-05T18:34:42.809Z,100522.75
2023-01-05T18:37:15.715Z,100524.00
2023-01-05T18:39:49.433Z,100525.06
2023-01-05T18:42:16.542Z,100521.75
2023-01-05T18:44:43.323Z,100528.00
2023-01-05T18:47:10.395Z,100525.91
2023-01-05T18:49:37.239Z,100531.31
2023-01-05T18:52:04.664Z,100532.00
2023-01-05T18:54:31.751Z,100536.06
2023-01-05T18:57:00.014Z,100533.63
2023-01-05T18:59:26.961Z,100533.56
2023-01-05T19:01:54.086Z,100542.53
2023-01-05T19:04:21.006Z,100529.03
2023-01-05T19:06:47.825Z,100528.84
2023-01-05T19:09:15.039Z,100529.97
2023-01-05T19:11:46.382Z,100538.69
2023-01-05T19:14:15.774Z,100534.78
2023-01-05T19:16:42.657Z,100534.06
2023-01-05T19:19:12.899Z,100539.16
2023-01-05T19:21:43.169Z,100539.88
2023-01-05T19:24:16.098Z,100537.19
2023-01-05T19:26:44.388Z,100534.50
2023-01-05T19:29:14.131Z,100527.53
2023-01-05T19:31:42.470Z,100525.72
2023-01-05T19:34:11.011Z,100520.69
2023-01-05T19:36:38.266Z,100523.47
2023-01-05T19:39:11.255Z,100525.25
2023-01-05T19:41:40.925Z,100517.88
2023-01-05T19:44:11.999Z,100519.63
2023-01-05T19:46:40.901Z,100516.34
2023-01-05T19:49:13.071Z,100524.06
2023-01-05T19:51:39.874Z,100518.97
2023-01-05T19:54:06.800Z,100513.63
2023-01-05T19:56:36.478Z,100521.03
2023-01-05T19:59:06.743Z,100517.25
2023-01-05T20:01:37.006Z,100519.75
2023-01-05T20:04:06.532Z,100519.56
2023-01-05T20:06:37.713Z,100516.00
2023-01-05T20:09:08.087Z,100510.16
2023-01-05T20:11:37.583Z,100515.50
2023-01-05T20:14:08.645Z,100512.59
2023-01-05T20:16:37.192Z,100522.81
2023-01-05T20:19:06.149Z,100510.56
2023-01-05T20:21:33.030Z,100520.59
2023-01-05T20:24:01.057Z,100515.28
2023-01-05T20:26:30.802Z,100512.28
2023-01-05T20:28:58.191Z,100506.41
2023-01-05T20:31:30.453Z,100509.94
2023-01-05T20:34:00.730Z,100518.94
2023-01-05T20:36:29.706Z,100514.16
2023-01-05T20:38:58.947Z,100523.88
2023-01-05T20:41:32.221Z,100513.66
2023-01-05T20:43:59.271Z,100510.03
2023-01-05T20:46:35.733Z,100510.28
2023-01-05T20:49:04.200Z,100508.53
2023-01-05T20:51:32.939Z,100505.78
2023-01-05T20:54:01.149Z,100504.56
2023-01-05T20:56:31.069Z,100509.59
2023-01-05T20:58:58.075Z,100499.72
2023-01-05T21:01:25.158Z,100502.94
2023-01-05T21:03:54.640Z,100506.88
2023-01-05T21:06:21.754Z,100503.09
2023-01-05T21:08:51.461Z,100496.19
2023-01-05T21:11:20.662Z,100494.97
2023-01-05T21:13:49.724Z,100497.50
2023-01-05T21:16:22.634Z,100495.41
2023-01-05T21:18:50.271Z,100494.97
2023-01-05T21:21:19.904Z,100493.09
2023-01-05T21:23:50.543Z,100493.56
2023-01-05T21:26:18.856Z,100492.81
2023-01-05T21:28:47.454Z,100491.19
2023-01-05T21:31:19.707Z,100493.97
2023-01-05T21:33:47.098Z,100497.66
2023-01-05T21:36:17.801Z,100483.34
2023-01-05T21:39:00.744Z,100480.53
2023-01-05T21:41:31.348Z,100478.47
2023-01-05T21:43:58.106Z,100475.50
2023-01-05T21:46:24.870Z,100486.50
2023-01-05T21:48:51.710Z,100485.28
2023-01-05T21:51:18.942Z,100486.78
2023-01-05T21:53:46.476Z,100486.50
2023-01-05T21:56:15.272Z,100485.75
2023-01-05T21:58:42.212Z,100489.97
2023-01-05T22:01:09.340Z,100481.03
2023-01-05T22:03:36.296Z,100475.25
2023-01-05T22:06:03.759Z,100469.06
2023-01-05T22:08:30.720Z,100472.47
2023-01-05T22:10:59.620Z,100469.09
2023-01-05T22:13:27.897Z,100470.94
2023-01-05T22:15:55.230Z,100469.25
2023-01-05T22:18:24.275Z,100476.09
2023-01-05T22:20:56.507Z,100470.75
2023-01-05T22:23:23.415Z,100468.78
2023-01-05T22:25:58.343Z,100483.22
2023-01-05T22:28:26.947Z,100476.84
2023-01-05T22:31:01.572Z,100472.34
2023-01-05T22:33:31.039Z,100488.78
2023-01-05T22:35:58.280Z,100482.00
2023-01-05T22:38:25.615Z,100475.34
2023-01-05T22:40:54.408Z,100475.16
2023-01-05T22:43:23.210Z,100476.34
2023-01-05T22:45:52.112Z,100475.28
2023-01-05T22:48:19.585Z,100473.56
2023-01-05T22:50:46.745Z,100469.84
2023-01-05T22:53:13.557Z,100459.44
2023-01-05T22:55:42.087Z,100461.16
2023-01-05T22:58:09.459Z,100470.81
2023-01-05T23:00:36.777Z,100470.13
2023-01-05T23:03:04.955Z,100468.00
2023-01-05T23:05:31.737Z,100462.22
2023-01-05T23:07:58.495Z,100456.53
2023-01-05T23:10:25.340Z,100457.19
2023-01-05T23:12:52.350Z,100455.19
2023-01-05T23:15:19.036Z,100450.69
2023-01-05T23:17:45.839Z,100445.78
2023-01-05T23:20:14.811Z,100454.16
2023-01-05T23:22:42.665Z,100447.75
2023-01-05T23:25:10.102Z,100446.75
2023-01-05T23:27:37.448Z,100439.97
2023-01-05T23:30:05.889Z,100433.50
2023-01-05T23:32:32.803Z,100435.94
2023-01-05T23:35:00.330Z,100428.47
2023-01-05T23:37:30.323Z,100421.72
2023-01-05T23:39:57.502Z,100427.88
2023-01-05T23:42:24.346Z,100429.84
2023-01-05T23:44:51.291Z,100423.72
2023-01-05T23:47:18.298Z,100429.13
2023-01-05T23:49:45.080Z,100434.13
2023-01-05T23:52:11.997Z,100429.66
2023-01-05T23:54:40.173Z,100424.81
2023-01-05T23:57:07.052Z,100416.84
2023-01-05T23:59:33.873Z,100411.47
